Time;durP1;ratioP1;P1;durP2;ratioP2;P2;SDS_P1;SDS_P2;PMS_P1;PMS_P2;Temp;Humidity;BMP_temperature;BMP_pressure;BME280_temperature;BME280_humidity;BME280_pressure;Samples;Min_cycle;Max_cycle;Signal;HPM_P1;HPM_P2
2023/04/29 00:01:24;;;;;;;2.50;1.43;;;;;;;;;;5052345;28;20542;-69
2023/04/29 00:03:53;;;;;;;1.37;1.20;;;;;;;;;;5050217;28;20814;-68
2023/04/29 00:06:20;;;;;;;2.87;1.90;;;;;;;;;;5051308;28;20450;-67
2023/04/29 00:08:47;;;;;;;3.07;1.53;;;;;;;;;;5050369;28;20446;-68
2023/04/29 00:11:14;;;;;;;1.50;1.30;;;;;;;;;;5050792;28;20458;-67
2023/04/29 00:13:41;;;;;;;2.10;1.20;;;;;;;;;;5050167;28;20457;-67
2023/04/29 00:16:09;;;;;;;1.43;0.97;;;;;;;;;;5050278;28;20931;-67
2023/04/29 00:18:37;;;;;;;1.73;1.30;;;;;;;;;;5050214;28;20458;-67
2023/04/29 00:21:06;;;;;;;2.47;2.13;;;;;;;;;;5049519;28;21008;-67
2023/04/29 00:23:33;;;;;;;1.43;1.30;;;;;;;;;;5049900;28;20483;-67
2023/04/29 00:26:00;;;;;;;1.60;1.20;;;;;;;;;;5050120;28;20465;-68
2023/04/29 00:28:27;;;;;;;3.10;1.57;;;;;;;;;;5050703;28;20461;-68
2023/04/29 00:30:54;;;;;;;1.70;1.40;;;;;;;;;;5049928;28;20455;-67
2023/04/29 00:33:21;;;;;;;2.20;1.53;;;12.10;99.90;;;;;;5050534;28;20469;-67
2023/04/29 00:35:48;;;;;;;1.67;1.27;;;;;;;;;;5050361;28;20821;-68
2023/04/29 00:38:17;;;;;;;1.40;1.10;;;;;;;;;;5051345;28;20442;-68
2023/04/29 00:40:44;;;;;;;1.63;1.10;;;;;;;;;;5050604;28;20471;-68
2023/04/29 00:43:12;;;;;;;1.10;0.90;;;;;;;;;;5050967;28;20457;-68
2023/04/29 00:45:39;;;;;;;2.30;1.40;;;;;;;;;;5050271;28;20810;-68
2023/04/29 00:48:06;;;;;;;4.50;1.03;;;;;;;;;;5051042;28;20450;-68
2023/04/29 00:50:33;;;;;;;2.73;1.13;;;11.50;99.90;;;;;;5050514;28;20858;-68
2023/04/29 00:53:00;;;;;;;2.30;1.00;;;11.40;99.90;;;;;;5050984;28;20453;-68
2023/04/29 00:55:29;;;;;;;1.07;0.90;;;11.30;99.90;;;;;;5050723;28;20490;-68
2023/04/29 00:57:56;;;;;;;1.50;1.20;;;11.30;99.90;;;;;;5049049;28;20438;-68
2023/04/29 01:00:25;;;;;;;1.73;1.40;;;11.30;99.90;;;;;;5050010;28;20453;-68
2023/04/29 01:02:52;;;;;;;1.20;1.00;;;11.30;99.90;;;;;;5048941;28;21233;-68
2023/04/29 01:05:19;;;;;;;1.20;0.70;;;11.20;99.90;;;;;;5049635;28;20447;-68
2023/04/29 01:08:08;;;;;;;2.00;1.17;;;11.20;99.90;;;;;;5049292;28;20811;-68
2023/04/29 01:10:44;;;;;;;1.60;1.10;;;11.20;99.90;;;;;;5050228;28;20446;-67
2023/04/29 01:13:17;;;;;;;3.00;1.70;;;11.30;99.90;;;;;;5050510;28;20535;-68
2023/04/29 01:15:49;;;;;;;1.10;0.77;;;11.30;99.90;;;;;;5048778;28;20477;-68
2023/04/29 01:18:23;;;;;;;2.37;1.23;;;11.20;99.90;;;;;;5049443;28;20439;-68
2023/04/29 01:20:50;;;;;;;1.70;1.37;;;;;;;;;;5049683;28;20466;-68
2023/04/29 01:23:17;;;;;;;1.90;1.57;;;;;;;;;;5050120;28;20459;-68
2023/04/29 01:25:47;;;;;;;1.80;1.27;;;;;;;;;;5049453;28;20460;-68
2023/04/29 01:28:21;;;;;;;1.50;0.87;;;;;;;;;;5053944;28;20504;-68
2023/04/29 01:30:51;;;;;;;1.40;0.80;;;;;;;;;;5054156;28;20450;-68
2023/04/29 01:33:33;;;;;;;1.50;1.00;;;;;;;;;;5054509;28;20442;-68
2023/04/29 01:36:21;;;;;;;1.10;0.90;;;;;;;;;;5047570;28;20458;-68
2023/04/29 01:38:51;;;;;;;1.80;1.03;;;;;;;;;;5053498;28;20452;-68
2023/04/29 01:41:28;;;;;;;1.30;0.90;;;;;;;;;;5054431;28;20476;-68
2023/04/29 01:43:57;;;;;;;1.30;0.90;;;;;;;;;;5047356;28;20434;-68
2023/04/29 01:46:24;;;;;;;1.23;0.97;;;;;;;;;;5053535;28;20450;-68
2023/04/29 01:48:53;;;;;;;1.87;1.07;;;;;;;;;;5053037;28;20453;-68
2023/04/29 01:51:20;;;;;;;1.17;0.90;;;;;;;;;;5054038;28;20461;-68
2023/04/29 01:53:48;;;;;;;1.00;0.90;;;;;;;;;;5052201;28;20531;-68
2023/04/29 01:56:15;;;;;;;2.00;1.80;;;;;;;;;;5053547;28;20473;-68
2023/04/29 01:58:43;;;;;;;2.30;1.47;;;;;;;;;;5052427;28;20981;-67
2023/04/29 02:01:10;;;;;;;1.40;0.90;;;;;;;;;;5053447;28;20477;-68
2023/04/29 02:03:37;;;;;;;3.70;1.40;;;;;;;;;;5051917;28;20468;-67
2023/04/29 02:06:06;;;;;;;1.37;0.93;;;;;;;;;;5053109;28;20454;-68
2023/04/29 02:08:33;;;;;;;1.37;1.10;;;;;;;;;;5053167;28;20447;-68
2023/04/29 02:11:00;;;;;;;1.83;1.03;;;;;;;;;;5052946;28;20450;-68
2023/04/29 02:13:27;;;;;;;1.57;1.47;;;;;;;;;;5052769;28;20458;-68
2023/04/29 02:15:55;;;;;;;1.10;1.00;;;;;;;;;;5051986;28;21298;-68
2023/04/29 02:18:22;;;;;;;1.77;1.00;;;;;;;;;;5052309;28;20455;-68
2023/04/29 02:20:50;;;;;;;1.10;1.00;;;;;;;;;;5051020;28;20447;-68
2023/04/29 02:23:17;;;;;;;1.53;1.10;;;;;;;;;;5053107;28;20461;-68
2023/04/29 02:25:45;;;;;;;1.77;1.07;;;;;;;;;;5051886;28;20460;-68
2023/04/29 02:28:12;;;;;;;1.23;0.90;;;;;;;;;;5052423;28;20955;-69
2023/04/29 02:30:39;;;;;;;2.20;1.23;;;;;;;;;;5052355;28;20542;-67
2023/04/29 02:33:07;;;;;;;1.17;1.00;;;;;;;;;;5053099;28;20446;-68
2023/04/29 02:35:35;;;;;;;1.53;0.93;;;;;;;;;;5052142;28;20446;-67
2023/04/29 02:38:02;;;;;;;1.33;1.20;;;;;;;;;;5053135;28;20450;-68
2023/04/29 02:40:29;;;;;;;1.57;0.77;;;;;;;;;;5053354;28;20446;-68
2023/04/29 02:42:56;;;;;;;2.20;1.30;;;;;;;;;;5052650;28;20482;-69
2023/04/29 02:45:23;;;;;;;1.40;0.90;;;;;;;;;;5051980;28;20541;-67
2023/04/29 02:47:50;;;;;;;1.40;1.20;;;;;;;;;;5051746;28;20453;-69
2023/04/29 02:50:19;;;;;;;1.00;0.70;;;;;;;;;;5052042;28;20537;-68
2023/04/29 02:52:46;;;;;;;1.77;1.40;;;;;;;;;;5052038;28;20457;-68
2023/04/29 02:55:13;;;;;;;1.70;1.13;;;;;;;;;;5047614;28;20551;-68
2023/04/29 02:57:40;;;;;;;2.10;1.37;;;;;;;;;;5050971;28;20458;-68
2023/04/29 03:00:08;;;;;;;1.87;1.17;;;;;;;;;;5052723;28;20842;-68
2023/04/29 03:02:36;;;;;;;1.40;1.10;;;;;;;;;;5051354;28;20478;-68
2023/04/29 03:05:03;;;;;;;1.20;0.90;;;;;;;;;;5052202;28;20458;-68
2023/04/29 03:07:31;;;;;;;2.17;1.50;;;;;;;;;;5055559;28;20442;-68
2023/04/29 03:09:59;;;;;;;1.40;1.23;;;;;;;;;;5051726;28;20461;-68
2023/04/29 03:12:26;;;;;;;1.40;1.03;;;;;;;;;;5052390;28;20454;-68
2023/04/29 03:14:53;;;;;;;1.73;1.20;;;;;;;;;;5049401;28;20480;-68
2023/04/29 03:17:20;;;;;;;1.20;0.93;;;;;;;;;;5052080;28;20811;-68
2023/04/29 03:19:47;;;;;;;1.90;1.07;;;;;;;;;;5051577;28;20455;-68
2023/04/29 03:22:14;;;;;;;2.23;1.20;;;;;;;;;;5051871;28;20474;-68
2023/04/29 03:24:43;;;;;;;3.47;2.23;;;;;;;;;;5050821;28;20552;-68
2023/04/29 03:27:11;;;;;;;1.50;1.20;;;;;;;;;;5051629;28;20809;-68
2023/04/29 03:29:38;;;;;;;1.43;0.83;;;;;;;;;;5051025;28;20488;-67
2023/04/29 03:32:05;;;;;;;1.70;1.50;;;;;;;;;;5051940;28;20458;-68
2023/04/29 03:34:32;;;;;;;1.30;0.97;;;;;;;;;;5051593;28;20446;-68
2023/04/29 03:37:00;;;;;;;1.87;1.53;;;;;;;;;;5050538;28;20931;-68
2023/04/29 03:39:31;;;;;;;1.07;0.80;;;;;;;;;;5052094;28;20481;-68
2023/04/29 03:42:00;;;;;;;1.30;0.93;;;;;;;;;;5052335;28;20477;-68
2023/04/29 03:44:28;;;;;;;1.40;1.20;;;11.10;99.90;;;;;;5052168;28;20454;-68
2023/04/29 03:46:54;;;;;;;1.90;1.73;;;10.10;99.90;;;;;;5051507;28;20455;-68
2023/04/29 03:49:22;;;;;;;4.50;1.43;;;;;;;;;;5051351;28;20578;-68
2023/04/29 03:51:49;;;;;;;1.20;1.03;;;;;;;;;;5050939;28;20553;-68
2023/04/29 03:54:16;;;;;;;1.00;0.70;;;;;;;;;;5051153;28;20838;-68
2023/04/29 03:56:43;;;;;;;1.10;0.90;;;;;;;;;;5052117;28;20444;-68
2023/04/29 03:59:12;;;;;;;1.30;1.00;;;;;;;;;;5051704;28;20442;-68
2023/04/29 04:01:39;;;;;;;1.97;1.07;;;;;;;;;;5050507;28;20493;-68
2023/04/29 04:04:06;;;;;;;1.40;1.10;;;;;;;;;;5050201;28;20843;-67
2023/04/29 04:06:33;;;;;;;1.83;1.10;;;;;;;;;;5050778;28;20456;-67
2023/04/29 04:09:00;;;;;;;1.27;1.07;;;;;;;;;;5050879;28;20457;-67
2023/04/29 04:11:27;;;;;;;1.97;1.63;;;;;;;;;;5050707;28;20462;-67
2023/04/29 04:13:55;;;;;;;1.80;1.50;;;;;;;;;;5049825;28;21077;-67
2023/04/29 04:16:23;;;;;;;2.30;1.60;;;;;;;;;;5051113;28;20454;-67
2023/04/29 04:18:50;;;;;;;1.80;1.70;;;;;;;;;;5049662;28;20451;-67
2023/04/29 04:21:17;;;;;;;1.10;0.70;;;;;;;;;;5050872;28;20772;-67
2023/04/29 04:23:44;;;;;;;1.00;0.90;;;;;;;;;;5049499;28;20485;-67
2023/04/29 04:26:11;;;;;;;1.33;0.87;;;;;;;;;;5050173;28;20457;-68
2023/04/29 04:28:39;;;;;;;1.13;1.00;;;;;;;;;;5048408;28;20966;-67
2023/04/29 04:31:06;;;;;;;1.87;1.30;;;;;;;;;;5051054;28;20459;-67
2023/04/29 04:33:35;;;;;;;2.37;1.57;;;;;;;;;;5049756;28;20458;-67
2023/04/29 04:36:02;;;;;;;1.33;1.23;;;;;;;;;;5050321;28;20533;-68
2023/04/29 04:38:31;;;;;;;0.90;0.70;;;;;;;;;;5050712;28;20454;-68
2023/04/29 04:40:58;;;;;;;1.00;0.63;;;;;;;;;;5050823;28;20953;-67
2023/04/29 04:43:25;;;;;;;1.00;0.70;;;;;;;;;;5050580;28;20486;-67
2023/04/29 04:45:53;;;;;;;2.30;1.23;;;;;;;;;;5049922;28;20563;-67
2023/04/29 04:48:20;;;;;;;1.30;0.97;;;;;;;;;;5050280;28;20993;-68
2023/04/29 04:50:48;;;;;;;2.00;1.73;;;;;;;;;;5049408;28;20447;-67
2023/04/29 04:53:16;;;;;;;2.77;1.40;;;;;;;;;;5050032;28;20446;-67
2023/04/29 04:55:43;;;;;;;2.20;1.67;;;;;;;;;;5049261;28;20482;-67
2023/04/29 04:58:10;;;;;;;1.20;0.93;;;;;;;;;;5049370;28;20454;-67
2023/04/29 05:00:37;;;;;;;2.57;1.27;;;;;;;;;;5048900;28;20457;-67
2023/04/29 05:03:05;;;;;;;1.73;1.10;;;;;;;;;;5048992;28;20555;-68
2023/04/29 05:05:34;;;;;;;2.50;1.57;;;;;;;;;;5049899;28;20442;-67
2023/04/29 05:08:02;;;;;;;1.07;0.77;;;;;;;;;;5049879;28;20462;-67
2023/04/29 05:10:29;;;;;;;1.30;0.90;;;;;;;;;;5050370;28;20458;-67
2023/04/29 05:12:56;;;;;;;1.90;1.50;;;;;;;;;;5049297;28;20455;-67
2023/04/29 05:15:26;;;;;;;2.13;1.43;;;;;;;;;;5049789;28;20450;-67
2023/04/29 05:17:53;;;;;;;1.47;1.17;;;;;;;;;;5049028;28;20609;-67
2023/04/29 05:20:20;;;;;;;1.10;0.90;;;;;;;;;;5049036;28;20449;-66
2023/04/29 05:22:47;;;;;;;2.10;1.30;;;;;;;;;;5048761;28;20926;-67
2023/04/29 05:25:16;;;;;;;1.70;1.30;;;;;;;;;;5049469;28;20520;-67
2023/04/29 05:27:43;;;;;;;2.07;1.13;;;;;;;;;;5048612;28;20449;-66
2023/04/29 05:30:10;;;;;;;1.80;1.43;;;;;;;;;;5049456;28;20450;-68
2023/04/29 05:32:37;;;;;;;1.63;1.20;;;;;;;;;;5048549;28;20885;-68
2023/04/29 05:35:05;;;;;;;7.10;3.73;;;;;;;;;;5050198;28;20446;-68
2023/04/29 05:37:32;;;;;;;2.73;1.80;;;;;;;;;;5049923;28;20505;-69
2023/04/29 05:39:59;;;;;;;2.00;1.53;;;;;;;;;;5048733;28;20955;-68
2023/04/29 05:42:27;;;;;;;1.73;1.30;;;;;;;;;;5050053;28;20514;-69
2023/04/29 05:44:55;;;;;;;1.60;1.33;;;;;;;;;;5048577;28;20454;-68
2023/04/29 05:47:22;;;;;;;1.90;0.97;;;;;;;;;;5050031;28;20798;-68
2023/04/29 05:49:49;;;;;;;2.37;1.87;;;;;;;;;;5048658;28;20443;-69
2023/04/29 05:52:16;;;;;;;2.53;1.60;;;;;;;;;;5049428;28;20450;-69
2023/04/29 05:54:43;;;;;;;2.77;2.03;;;10.00;99.90;;;;;;5047830;28;20482;-69
2023/04/29 05:57:10;;;;;;;2.23;1.93;;;12.80;99.90;;;;;;5048875;28;20457;-69
2023/04/29 05:59:38;;;;;;;2.30;2.10;;;12.90;99.90;;;;;;5048576;28;20516;-68
2023/04/29 06:02:04;;;;;;;2.50;2.13;;;12.90;99.90;;;;;;5048858;28;20496;-71
2023/04/29 06:04:31;;;;;;;2.63;1.87;;;13.00;99.90;;;;;;5050652;28;20450;-70
2023/04/29 06:06:58;;;;;;;2.67;1.70;;;13.00;99.90;;;;;;5049640;28;20446;-70
2023/04/29 06:09:25;;;;;;;1.83;1.60;;;13.10;99.90;;;;;;5049279;28;20452;-71
2023/04/29 06:11:52;;;;;;;3.40;2.57;;;13.20;99.90;;;;;;5048762;28;20832;-69
2023/04/29 06:14:19;;;;;;;2.13;1.77;;;13.30;99.90;;;;;;5052210;28;20458;-70
2023/04/29 06:16:48;;;;;;;3.83;2.47;;;13.30;99.90;;;;;;5052209;28;20446;-70
2023/04/29 06:19:14;;;;;;;3.07;2.30;;;13.40;99.90;;;;;;5053812;28;20452;-70
2023/04/29 06:21:41;;;;;;;2.60;2.00;;;13.50;99.90;;;;;;5052546;28;20446;-70
2023/04/29 06:24:08;;;;;;;2.07;1.70;;;13.50;99.90;;;;;;5052664;28;20543;-68
2023/04/29 06:26:35;;;;;;;2.30;2.10;;;13.60;99.90;;;;;;5052411;28;20458;-68
2023/04/29 06:29:02;;;;;;;2.80;2.07;;;13.60;99.90;;;;;;5052734;28;20448;-68
2023/04/29 06:31:29;;;;;;;1.67;1.50;;;13.60;99.90;;;;;;5052741;28;20538;-68
2023/04/29 06:33:57;;;;;;;2.50;1.60;;;13.60;99.90;;;;;;5051971;28;20940;-67
2023/04/29 06:36:24;;;;;;;2.47;1.60;;;13.50;99.90;;;;;;5051873;28;20464;-67
2023/04/29 06:38:51;;;;;;;1.97;1.20;;;13.60;99.90;;;;;;5052066;28;20643;-67
2023/04/29 06:41:17;;;;;;;1.70;1.50;;;13.70;99.90;;;;;;5052941;28;20450;-67
2023/04/29 06:43:44;;;;;;;2.73;1.80;;;13.70;99.90;;;;;;5051219;28;20485;-67
2023/04/29 06:46:11;;;;;;;1.43;1.23;;;13.80;99.90;;;;;;5052274;28;20522;-68
2023/04/29 06:48:38;;;;;;;3.47;1.83;;;13.90;99.90;;;;;;5051586;28;20537;-67
2023/04/29 06:51:07;;;;;;;3.70;3.20;;;13.90;99.90;;;;;;5052739;28;20465;-67
2023/04/29 06:53:33;;;;;;;1.70;1.60;;;14.00;99.90;;;;;;5051158;28;20813;-67
2023/04/29 06:56:00;;;;;;;2.37;1.67;;;14.10;99.90;;;;;;5052592;28;20489;-68
2023/04/29 06:58:27;;;;;;;2.40;1.70;;;14.20;99.90;;;;;;5052665;28;20966;-68
2023/04/29 07:00:54;;;;;;;1.53;1.43;;;14.20;99.90;;;;;;5051759;28;20556;-70
2023/04/29 07:03:21;;;;;;;1.67;1.53;;;14.10;99.90;;;;;;5038323;28;20486;-69
2023/04/29 07:05:48;;;;;;;2.00;1.50;;;14.20;99.90;;;;;;5052179;28;20443;-69
2023/04/29 07:08:16;;;;;;;1.70;1.60;;;14.10;99.90;;;;;;5052471;28;20453;-68
2023/04/29 07:10:43;;;;;;;1.60;1.20;;;14.20;99.90;;;;;;5057964;28;20438;-68
2023/04/29 07:13:10;;;;;;;2.70;1.87;;;14.10;99.90;;;;;;5052057;28;20461;-67
2023/04/29 07:15:37;;;;;;;5.00;3.57;;;14.20;99.90;;;;;;5051887;28;20482;-67
2023/04/29 07:18:04;;;;;;;1.60;1.50;;;14.40;99.90;;;;;;5052234;28;20440;-68
2023/04/29 07:20:31;;;;;;;1.30;1.20;;;14.40;99.90;;;;;;5052309;28;20861;-68
2023/04/29 07:22:58;;;;;;;1.30;0.97;;;14.40;99.90;;;;;;5059478;28;20489;-68
2023/04/29 07:25:26;;;;;;;1.10;1.00;;;14.40;99.90;;;;;;5056956;28;20813;-68
2023/04/29 07:27:53;;;;;;;2.03;1.90;;;14.20;99.90;;;;;;5052091;28;20450;-68
2023/04/29 07:30:20;;;;;;;1.00;0.90;;;14.20;99.90;;;;;;5052622;28;20446;-68
2023/04/29 07:32:47;;;;;;;1.20;1.00;;;14.10;99.90;;;;;;5051817;28;20955;-69
2023/04/29 07:35:13;;;;;;;1.73;1.00;;;14.30;99.90;;;;;;5052085;28;20454;-68
2023/04/29 07:37:42;;;;;;;1.57;1.23;;;14.40;99.90;;;;;;5052060;28;20541;-70
2023/04/29 07:40:09;;;;;;;1.47;1.23;;;14.60;99.90;;;;;;5052385;28;20503;-69
2023/04/29 07:42:37;;;;;;;1.93;1.60;;;14.60;99.90;;;;;;5051520;28;20574;-71
2023/04/29 07:45:05;;;;;;;2.00;1.37;;;14.70;99.90;;;;;;5051731;28;20453;-68
2023/04/29 07:47:32;;;;;;;2.53;1.37;;;14.60;99.90;;;;;;5051753;28;20454;-68
2023/04/29 07:49:59;;;;;;;3.10;1.50;;;14.60;99.90;;;;;;5051222;28;20453;-70
2023/04/29 07:52:26;;;;;;;1.10;0.83;;;14.60;99.90;;;;;;5052015;28;20608;-70
2023/04/29 07:54:54;;;;;;;1.90;1.40;;;14.70;99.90;;;;;;5050259;28;21097;-70
2023/04/29 07:57:21;;;;;;;1.30;1.20;;;14.70;99.90;;;;;;5059592;28;20536;-70
2023/04/29 07:59:52;;;;;;;1.83;1.40;;;14.70;75.60;;;;;;5052807;28;20453;-68
2023/04/29 08:02:20;;;;;;;2.50;1.17;;;14.70;98.90;;;;;;5051306;28;20442;-68
2023/04/29 08:04:47;;;;;;;3.00;1.47;;;14.70;47.60;;;;;;5049955;28;20443;-68
2023/04/29 08:07:14;;;;;;;3.23;2.83;;;14.70;25.40;;;;;;5051414;28;20529;-68
2023/04/29 08:09:41;;;;;;;2.53;1.40;;;14.80;1.00;;;;;;5050473;28;20447;-67
2023/04/29 08:12:08;;;;;;;1.40;1.10;;;14.80;2.50;;;;;;5050329;28;20450;-68
2023/04/29 08:14:35;;;;;;;1.30;1.20;;;15.00;1.00;;;;;;5050722;28;20833;-68
2023/04/29 08:17:03;;;;;;;1.50;1.10;;;15.10;22.50;;;;;;5051494;28;20450;-67
2023/04/29 08:19:30;;;;;;;1.50;1.40;;;15.00;1.00;;;;;;5051464;28;20446;-68
2023/04/29 08:21:57;;;;;;;1.87;1.10;;;15.00;1.00;;;;;;5050264;28;20438;-67
2023/04/29 08:24:23;;;;;;;1.80;1.40;;;15.20;1.00;;;;;;5051209;28;20497;-67
2023/04/29 08:26:51;;;;;;;1.30;0.90;;;15.30;99.90;;;;;;5050868;28;20544;-67
2023/04/29 08:29:18;;;;;;;2.03;1.53;;;15.30;99.90;;;;;;5051368;28;20587;-68
2023/04/29 08:31:45;;;;;;;1.20;0.97;;;15.40;99.90;;;;;;5049578;28;20558;-67
2023/04/29 08:34:13;;;;;;;1.10;0.77;;;15.40;99.90;;;;;;5051076;28;20511;-67
2023/04/29 08:36:40;;;;;;;1.30;1.10;;;15.50;1.00;;;;;;5049683;28;20461;-69
2023/04/29 08:39:07;;;;;;;1.87;1.17;;;15.40;99.90;;;;;;5050687;28;20455;-68
2023/04/29 08:41:36;;;;;;;1.93;1.33;;;15.30;1.00;;;;;;5050177;28;20694;-67
2023/04/29 08:44:03;;;;;;;1.00;0.90;;;15.20;97.40;;;;;;5050948;28;20486;-68
2023/04/29 08:46:30;;;;;;;1.60;1.23;;;15.00;99.90;;;;;;5050600;28;20454;-67
2023/04/29 08:48:58;;;;;;;1.00;0.80;;;14.70;1.00;;;;;;5050147;28;20446;-68
2023/04/29 08:51:26;;;;;;;1.50;0.83;;;14.70;99.90;;;;;;5050217;28;20446;-68
2023/04/29 08:53:53;;;;;;;2.50;1.83;;;14.60;1.00;;;;;;5049590;28;20919;-68
2023/04/29 08:56:20;;;;;;;1.33;1.23;;;14.70;1.00;;;;;;5050699;28;20521;-68
2023/04/29 08:58:50;;;;;;;2.43;0.93;;;14.50;2.50;;;;;;5050030;28;20451;-68
2023/04/29 09:01:18;;;;;;;2.50;1.30;;;14.60;78.30;;;;;;5050148;28;20450;-69
2023/04/29 09:03:51;;;;;;;1.40;1.17;;;14.70;17.20;;;;;;5049915;28;20486;-68
2023/04/29 09:06:18;;;;;;;1.00;0.90;;;14.80;96.80;;;;;;5050413;28;20442;-68
2023/04/29 09:08:47;;;;;;;0.90;0.80;;;14.80;64.00;;;;;;5049911;28;20442;-68
2023/04/29 09:11:15;;;;;;;1.40;1.20;;;14.70;99.90;;;;;;5049748;28;20450;-68
2023/04/29 09:13:41;;;;;;;1.80;1.47;;;14.60;99.90;;;;;;5049832;28;20455;-68
2023/04/29 09:16:11;;;;;;;1.07;0.90;;;;;;;;;;5050501;28;20442;-68
2023/04/29 09:18:46;;;;;;;1.70;1.40;;;;;;;;;;5050170;28;20485;-68
2023/04/29 09:21:13;;;;;;;1.87;1.67;;;;;;;;;;5049735;28;20449;-68
2023/04/29 09:23:40;;;;;;;1.53;1.37;;;;;;;;;;5050031;28;20500;-69
2023/04/29 09:26:09;;;;;;;1.47;1.10;;;;;;;;;;5050293;28;20806;-68
2023/04/29 09:28:38;;;;;;;1.30;1.20;;;;;;;;;;5049627;28;20844;-68
2023/04/29 09:31:07;;;;;;;1.13;0.93;;;;;;;;;;5050167;28;20457;-68
2023/04/29 09:33:49;;;;;;;1.50;1.40;;;;;;;;;;5050017;28;20636;-68
2023/04/29 09:36:35;;;;;;;3.50;1.73;;;;;;;;;;5050278;28;20446;-68
2023/04/29 09:39:03;;;;;;;1.90;1.70;;;;;;;;;;5050351;28;20516;-68
2023/04/29 09:41:32;;;;;;;2.03;1.40;;;;;;;;;;5049678;28;20512;-67
2023/04/29 09:44:05;;;;;;;1.60;1.20;;;;;;;;;;5049991;28;20478;-68
2023/04/29 09:46:33;;;;;;;1.60;1.40;;;;;;;;;;5050011;28;20956;-67
2023/04/29 09:49:01;;;;;;;2.03;1.17;;;;;;;;;;5053830;28;20435;-67
2023/04/29 09:51:31;;;;;;;9.67;4.23;;;;;;;;;;5053656;28;20957;-67
2023/04/29 09:53:58;;;;;;;34.90;18.80;;;;;;;;;;5053417;28;20974;-68
2023/04/29 09:56:27;;;;;;;27.83;11.27;;;;;;;;;;5054769;28;20442;-68
2023/04/29 09:58:56;;;;;;;3.03;2.00;;;;;;;;;;5053761;28;21082;-68
2023/04/29 10:01:24;;;;;;;14.43;9.03;;;;;;;;;;5053917;28;20443;-67
2023/04/29 10:03:52;;;;;;;2.03;1.40;;;;;;;;;;5053359;28;20517;-68
2023/04/29 10:06:20;;;;;;;6.97;3.67;;;;;;;;;;5053836;28;20446;-68
2023/04/29 10:08:48;;;;;;;2.30;1.60;;;;;;;;;;5053312;28;20955;-68
2023/04/29 10:11:16;;;;;;;1.13;1.03;;;;;;;;;;5053990;28;20788;-69
2023/04/29 10:13:44;;;;;;;22.23;11.03;;;;;;;;;;5052870;28;20462;-68
2023/04/29 10:16:17;;;;;;;20.13;11.30;;;;;;;;;;5053509;28;20507;-68
2023/04/29 10:18:49;;;;;;;3.73;1.93;;;;;;;;;;5053123;28;20457;-67
2023/04/29 10:21:17;;;;;;;6.83;4.73;;;;;;;;;;5053624;28;20446;-68
2023/04/29 10:23:45;;;;;;;5.33;2.13;;;;;;;;;;5053316;28;20497;-68
2023/04/29 10:26:14;;;;;;;1.40;1.10;;;;;;;;;;5054002;28;20458;-68
2023/04/29 10:28:41;;;;;;;1.93;1.00;;;;;;;;;;5053119;28;20434;-68
2023/04/29 10:31:08;;;;;;;1.43;0.90;;;;;;;;;;5053198;28;20534;-68
2023/04/29 10:33:38;;;;;;;1.00;0.80;;;;;;;;;;5052999;28;20451;-67
2023/04/29 10:36:06;;;;;;;1.43;1.10;;;;;;;;;;5053659;28;20446;-68
2023/04/29 10:38:36;;;;;;;1.30;1.00;;;;;;;;;;5053178;28;20447;-67
2023/04/29 10:41:04;;;;;;;2.00;1.60;;;;;;;;;;5053047;28;20454;-68
2023/04/29 10:43:31;;;;;;;1.70;1.33;;;;;;;;;;5053392;28;20494;-68
2023/04/29 10:46:17;;;;;;;2.20;1.50;;;;;;;;;;5053189;28;20450;-68
2023/04/29 10:48:46;;;;;;;1.57;1.27;;;;;;;;;;5052255;28;20442;-67
2023/04/29 10:51:13;;;;;;;1.70;1.40;;;;;;;;;;5052506;28;20485;-68
2023/04/29 10:53:55;;;;;;;1.57;1.10;;;;;;;;;;5052328;28;20458;-66
2023/04/29 10:56:22;;;;;;;1.43;1.33;;;;;;;;;;5052251;28;20454;-69
2023/04/29 10:58:49;;;;;;;2.40;1.30;;;14.40;99.90;;;;;;5050721;28;20455;-67
2023/04/29 11:01:17;;;;;;;1.73;1.63;;;17.10;1.00;;;;;;5051851;28;20453;-67
2023/04/29 11:03:57;;;;;;;2.47;1.20;;;17.00;1.00;;;;;;5051671;28;20489;-67
2023/04/29 11:06:24;;;;;;;1.43;1.27;;;16.70;1.00;;;;;;5052450;28;20446;-67
2023/04/29 11:09:02;;;;;;;1.67;1.30;;;16.70;1.00;;;;;;5051790;28;20452;-67
2023/04/29 11:11:44;;;;;;;1.20;1.10;;;17.50;99.90;;;;;;5052146;28;20446;-67
2023/04/29 11:14:14;;;;;;;2.13;1.00;;;17.60;99.90;;;;;;5052107;28;20446;-67
2023/04/29 11:16:48;;;;;;;1.43;1.20;;;17.20;99.90;;;;;;5051745;28;20496;-67
2023/04/29 11:19:17;;;;;;;4.07;1.10;;;16.70;99.90;;;;;;5052715;28;20472;-67
2023/04/29 11:21:45;;;;;;;1.23;1.10;;;16.70;99.90;;;;;;5051544;28;20516;-67
2023/04/29 11:24:14;;;;;;;1.40;0.90;;;16.70;99.90;;;;;;5052443;28;20990;-68
2023/04/29 11:26:42;;;;;;;1.43;1.17;;;17.10;99.90;;;;;;5052166;28;20458;-68
2023/04/29 11:29:10;;;;;;;1.07;0.90;;;17.30;99.90;;;;;;5052517;28;20855;-68
2023/04/29 11:31:37;;;;;;;1.33;1.00;;;17.30;99.90;;;;;;5051518;28;20439;-67
2023/04/29 11:34:05;;;;;;;1.23;0.80;;;17.10;99.90;;;;;;5052306;28;20520;-67
2023/04/29 11:36:34;;;;;;;0.93;0.83;;;17.10;99.90;;;;;;5052323;28;20450;-68
2023/04/29 11:39:02;;;;;;;1.03;0.73;;;17.20;99.90;;;;;;5052056;28;20963;-67
2023/04/29 11:41:30;;;;;;;1.60;0.90;;;17.40;99.90;;;;;;5052012;28;20463;-68
2023/04/29 11:43:58;;;;;;;2.10;1.20;;;17.60;99.90;;;;;;5051507;28;20487;-68
2023/04/29 11:46:27;;;;;;;1.00;0.90;;;17.70;99.90;;;;;;5051949;28;20461;-68
2023/04/29 11:48:54;;;;;;;1.10;0.93;;;17.80;99.90;;;;;;5045381;28;20451;-69
2023/04/29 11:51:21;;;;;;;1.73;0.93;;;;;;;;;;5050940;28;20454;-68
2023/04/29 11:53:51;;;;;;;1.20;0.83;;;;;;;;;;5051274;28;20462;-69
2023/04/29 11:56:21;;;;;;;1.47;1.00;;;;;;;;;;5051843;28;20449;-68
2023/04/29 11:58:48;;;;;;;1.20;1.00;;;;;;;;;;5051094;28;20438;-68
2023/04/29 12:01:16;;;;;;;1.67;1.30;;;;;;;;;;5051034;28;20451;-68
2023/04/29 12:03:45;;;;;;;1.60;1.27;;;;;;;;;;5050924;28;20442;-68
2023/04/29 12:06:14;;;;;;;1.67;1.30;;;;;;;;;;5051079;28;20458;-68
2023/04/29 12:08:42;;;;;;;1.83;1.43;;;;;;;;;;5050550;28;20450;-68
2023/04/29 12:11:10;;;;;;;2.20;1.40;;;;;;;;;;5050126;28;20446;-69
2023/04/29 12:13:37;;;;;;;1.77;1.40;;;;;;;;;;5050571;28;20443;-68
2023/04/29 12:16:05;;;;;;;1.97;1.37;;;;;;;;;;5051240;28;20451;-69
2023/04/29 12:18:32;;;;;;;3.60;2.20;;;;;;;;;;5051000;28;20954;-67
2023/04/29 12:21:00;;;;;;;2.30;1.23;;;;;;;;;;5050792;28;20459;-68
2023/04/29 12:23:27;;;;;;;2.43;1.57;;;;;;;;;;5050994;28;20450;-68
2023/04/29 12:25:56;;;;;;;2.70;1.90;;;;;;;;;;5050432;28;21082;-67
2023/04/29 12:28:25;;;;;;;2.07;1.73;;;;;;;;;;5050922;28;20454;-68
2023/04/29 12:30:53;;;;;;;3.10;1.60;;;;;;;;;;5049956;28;20458;-67
2023/04/29 12:33:21;;;;;;;1.50;1.40;;;;;;;;;;5051068;28;20446;-67
2023/04/29 12:35:49;;;;;;;1.83;1.40;;;;;;;;;;5050173;28;20564;-67
2023/04/29 12:38:23;;;;;;;2.33;2.00;;;;;;;;;;5050811;28;20786;-67
2023/04/29 12:40:50;;;;;;;2.77;2.50;;;;;;;;;;5049767;28;20442;-67
2023/04/29 12:43:17;;;;;;;5.40;1.70;;;;;;;;;;5050457;28;20438;-67
2023/04/29 12:45:46;;;;;;;2.57;1.90;;;;;;;;;;5049504;28;21029;-67
2023/04/29 12:48:13;;;;;;;1.70;1.43;;;;;;;;;;5050103;28;20466;-68
2023/04/29 12:50:41;;;;;;;3.50;2.20;;;;;;;;;;5049139;28;20442;-67
2023/04/29 12:53:08;;;;;;;2.60;2.23;;;;;;;;;;5050476;28;20809;-67
2023/04/29 12:55:36;;;;;;;3.40;2.00;;;;;;;;;;5049944;28;20474;-67
2023/04/29 12:58:03;;;;;;;2.43;1.97;;;;;;;;;;5050455;28;20454;-68
2023/04/29 13:00:33;;;;;;;2.40;2.07;;;;;;;;;;5050101;28;20609;-69
2023/04/29 13:03:01;;;;;;;1.70;1.17;;;;;;;;;;5049965;28;20457;-68
2023/04/29 13:05:28;;;;;;;2.60;1.97;;;;;;;;;;5050597;28;21227;-68
2023/04/29 13:07:56;;;;;;;2.80;1.97;;;;;;;;;;5049449;28;20537;-67
2023/04/29 13:10:23;;;;;;;1.73;1.63;;;;;;;;;;5049843;28;20967;-67
2023/04/29 13:12:50;;;;;;;5.90;2.10;;;;;;;;;;5049622;28;20791;-67
2023/04/29 13:15:18;;;;;;;3.33;2.50;;;;;;;;;;5050415;28;20540;-68
2023/04/29 13:17:45;;;;;;;4.23;2.37;;;;;;;;;;5049289;28;20944;-67
2023/04/29 13:20:14;;;;;;;2.13;1.60;;;;;;;;;;5050444;28;20545;-68
2023/04/29 13:22:42;;;;;;;3.57;2.00;;;;;;;;;;5048960;28;20450;-67
2023/04/29 13:25:09;;;;;;;4.20;2.63;;;;;;;;;;5050857;28;20485;-68
2023/04/29 13:27:36;;;;;;;2.70;2.10;;;;;;;;;;5049884;28;21273;-67
2023/04/29 13:30:04;;;;;;;3.13;2.13;;;;;;;;;;5050294;28;20450;-67
2023/04/29 13:32:31;;;;;;;3.07;2.10;;;;;;;;;;5050683;28;20450;-68
2023/04/29 13:34:58;;;;;;;3.37;1.73;;;;;;;;;;5050384;28;20454;-68
2023/04/29 13:37:27;;;;;;;2.37;1.77;;;;;;;;;;5050296;28;20469;-68
2023/04/29 13:39:54;;;;;;;3.83;2.20;;;;;;;;;;5049689;28;20442;-67
2023/04/29 13:42:21;;;;;;;2.53;2.10;;;;;;;;;;5050433;28;20446;-68
2023/04/29 13:44:49;;;;;;;4.10;2.53;;;;;;;;;;5049539;28;20478;-68
2023/04/29 13:47:16;;;;;;;3.67;2.73;;;;;;;;;;5050326;28;20450;-68
2023/04/29 13:49:44;;;;;;;2.50;2.10;;;;;;;;;;5049285;28;20455;-68
2023/04/29 13:52:11;;;;;;;3.60;2.23;;;;;;;;;;5045183;28;20469;-68
2023/04/29 13:54:40;;;;;;;4.00;2.20;;;;;;;;;;5047345;28;20493;-68
2023/04/29 13:57:07;;;;;;;3.73;2.23;;;;;;;;;;5050853;28;20450;-68
2023/04/29 13:59:35;;;;;;;2.70;2.43;;;;;;;;;;5049237;28;20459;-67
2023/04/29 14:02:02;;;;;;;4.27;2.70;;;;;;;;;;5050382;28;20450;-68
2023/04/29 14:04:29;;;;;;;3.67;2.10;;;;;;;;;;5050220;28;20450;-68